sensor_id;sensor_type;location;lat;lon;timestamp;P1;durP1;ratioP1;P2;durP2;ratioP2
22146;SDS011;13074;48.298;14.424;2023-11-21T02:12:40;7.20;;;2.17;;
22146;SDS011;13074;48.298;14.424;2023-11-21T02:15:13;10.37;;;3.33;;
22146;SDS011;13074;48.298;14.424;2023-11-21T02:17:47;8.27;;;2.83;;
22146;SDS011;13074;48.298;14.424;2023-11-21T02:20:19;9.90;;;2.70;;
22146;SDS011;13074;48.298;14.424;2023-11-21T02:23:06;8.63;;;2.87;;
22146;SDS011;13074;48.298;14.424;2023-11-21T02:25:41;5.70;;;2.00;;
22146;SDS011;13074;48.298;14.424;2023-11-21T02:28:10;7.77;;;2.53;;
22146;SDS011;13074;48.298;14.424;2023-11-21T02:30:41;18.10;;;5.83;;
22146;SDS011;13074;48.298;14.424;2023-11-21T02:33:09;25.10;;;9.30;;
22146;SDS011;13074;48.298;14.424;2023-11-21T02:35:40;19.67;;;9.27;;
22146;SDS011;13074;48.298;14.424;2023-11-21T02:38:11;27.17;;;9.50;;
22146;SDS011;13074;48.298;14.424;2023-11-21T02:40:42;23.27;;;8.70;;
22146;SDS011;13074;48.298;14.424;2023-11-21T02:43:12;29.70;;;10.90;;
22146;SDS011;13074;48.298;14.424;2023-11-21T02:45:40;25.13;;;12.60;;
22146;SDS011;13074;48.298;14.424;2023-11-21T02:48:10;28.83;;;13.20;;
22146;SDS011;13074;48.298;14.424;2023-11-21T02:50:44;27.60;;;10.70;;
22146;SDS011;13074;48.298;14.424;2023-11-21T02:53:14;28.07;;;11.30;;
22146;SDS011;13074;48.298;14.424;2023-11-21T02:55:43;15.67;;;7.87;;
22146;SDS011;13074;48.298;14.424;2023-11-21T02:58:11;17.87;;;6.97;;
22146;SDS011;13074;48.298;14.424;2023-11-21T03:00:43;12.93;;;6.37;;
22146;SDS011;13074;48.298;14.424;2023-11-21T03:03:17;17.83;;;7.37;;
22146;SDS011;13074;48.298;14.424;2023-11-21T03:05:50;26.37;;;7.83;;
22146;SDS011;13074;48.298;14.424;2023-11-21T03:08:27;15.27;;;5.70;;
22146;SDS011;13074;48.298;14.424;2023-11-21T03:10:57;14.00;;;5.20;;
22146;SDS011;13074;48.298;14.424;2023-11-21T03:13:28;14.33;;;5.37;;
22146;SDS011;13074;48.298;14.424;2023-11-21T03:16:40;17.60;;;4.77;;
22146;SDS011;13074;48.298;14.424;2023-11-21T03:19:12;11.63;;;4.27;;
22146;SDS011;13074;48.298;14.424;2023-11-21T03:21:46;9.87;;;4.27;;
22146;SDS011;13074;48.298;14.424;2023-11-21T03:28:03;15.40;;;5.27;;
22146;SDS011;13074;48.298;14.424;2023-11-21T03:30:41;14.97;;;6.03;;
22146;SDS011;13074;48.298;14.424;2023-11-21T03:33:31;16.20;;;5.93;;
22146;SDS011;13074;48.298;14.424;2023-11-21T03:36:17;14.83;;;6.03;;
22146;SDS011;13074;48.298;14.424;2023-11-21T03:38:52;18.83;;;6.77;;
22146;SDS011;13074;48.298;14.424;2023-11-21T03:41:22;14.23;;;6.80;;
22146;SDS011;13074;48.298;14.424;2023-11-21T03:43:55;17.83;;;7.63;;
22146;SDS011;13074;48.298;14.424;2023-11-21T03:46:30;25.83;;;10.67;;
22146;SDS011;13074;48.298;14.424;2023-11-21T03:48:58;21.93;;;9.87;;
22146;SDS011;13074;48.298;14.424;2023-11-21T03:51:27;25.10;;;12.43;;
22146;SDS011;13074;48.298;14.424;2023-11-21T03:54:00;27.60;;;13.30;;
22146;SDS011;13074;48.298;14.424;2023-11-21T03:56:29;28.40;;;12.97;;
22146;SDS011;13074;48.298;14.424;2023-11-21T03:59:02;29.57;;;13.50;;
22146;SDS011;13074;48.298;14.424;2023-11-21T04:01:32;26.33;;;14.27;;
22146;SDS011;13074;48.298;14.424;2023-11-21T04:04:02;34.73;;;15.93;;
22146;SDS011;13074;48.298;14.424;2023-11-21T04:06:30;24.73;;;13.93;;
22146;SDS011;13074;48.298;14.424;2023-11-21T04:08:59;23.07;;;11.90;;
22146;SDS011;13074;48.298;14.424;2023-11-21T04:11:26;26.70;;;10.80;;
22146;SDS011;13074;48.298;14.424;2023-11-21T04:13:55;22.47;;;10.57;;
22146;SDS011;13074;48.298;14.424;2023-11-21T04:21:35;12.13;;;6.07;;
22146;SDS011;13074;48.298;14.424;2023-11-21T04:24:05;14.13;;;5.43;;
22146;SDS011;13074;48.298;14.424;2023-11-21T04:26:34;17.40;;;6.03;;
22146;SDS011;13074;48.298;14.424;2023-11-21T04:29:02;16.07;;;6.03;;
22146;SDS011;13074;48.298;14.424;2023-11-21T04:31:30;14.20;;;7.43;;
22146;SDS011;13074;48.298;14.424;2023-11-21T04:33:59;19.43;;;7.47;;
22146;SDS011;13074;48.298;14.424;2023-11-21T04:39:07;17.47;;;9.07;;
22146;SDS011;13074;48.298;14.424;2023-11-21T04:44:10;17.13;;;8.50;;
22146;SDS011;13074;48.298;14.424;2023-11-21T04:46:38;21.00;;;5.70;;
22146;SDS011;13074;48.298;14.424;2023-11-21T04:49:06;9.27;;;4.00;;
22146;SDS011;13074;48.298;14.424;2023-11-21T04:51:34;14.33;;;4.60;;
22146;SDS011;13074;48.298;14.424;2023-11-21T04:54:03;14.87;;;3.80;;
22146;SDS011;13074;48.298;14.424;2023-11-21T04:56:32;11.17;;;4.27;;
22146;SDS011;13074;48.298;14.424;2023-11-21T04:59:00;10.40;;;3.97;;
22146;SDS011;13074;48.298;14.424;2023-11-21T05:01:27;8.33;;;4.00;;
22146;SDS011;13074;48.298;14.424;2023-11-21T05:03:55;9.73;;;4.20;;
22146;SDS011;13074;48.298;14.424;2023-11-21T05:06:24;14.90;;;4.30;;
22146;SDS011;13074;48.298;14.424;2023-11-21T05:08:52;13.53;;;4.87;;
22146;SDS011;13074;48.298;14.424;2023-11-21T05:11:24;13.57;;;4.63;;
22146;SDS011;13074;48.298;14.424;2023-11-21T05:13:53;12.87;;;4.50;;
22146;SDS011;13074;48.298;14.424;2023-11-21T05:16:25;12.97;;;4.83;;
22146;SDS011;13074;48.298;14.424;2023-11-21T05:18:54;11.83;;;4.83;;
22146;SDS011;13074;48.298;14.424;2023-11-21T05:21:26;10.13;;;4.00;;
22146;SDS011;13074;48.298;14.424;2023-11-21T05:23:54;7.73;;;3.60;;
22146;SDS011;13074;48.298;14.424;2023-11-21T05:26:22;8.30;;;3.97;;
22146;SDS011;13074;48.298;14.424;2023-11-21T05:31:32;7.57;;;4.63;;
22146;SDS011;13074;48.298;14.424;2023-11-21T05:33:59;6.97;;;3.83;;
22146;SDS011;13074;48.298;14.424;2023-11-21T05:36:27;14.90;;;4.10;;
22146;SDS011;13074;48.298;14.424;2023-11-21T05:38:54;16.20;;;4.67;;
22146;SDS011;13074;48.298;14.424;2023-11-21T05:41:22;14.03;;;4.37;;
22146;SDS011;13074;48.298;14.424;2023-11-21T05:43:50;13.50;;;4.60;;
22146;SDS011;13074;48.298;14.424;2023-11-21T05:46:19;10.97;;;4.23;;
22146;SDS011;13074;48.298;14.424;2023-11-21T05:48:49;10.43;;;4.80;;
22146;SDS011;13074;48.298;14.424;2023-11-21T05:51:17;13.60;;;4.13;;
22146;SDS011;13074;48.298;14.424;2023-11-21T05:53:44;9.90;;;3.30;;
22146;SDS011;13074;48.298;14.424;2023-11-21T05:56:12;10.63;;;3.37;;
22146;SDS011;13074;48.298;14.424;2023-11-21T05:58:39;8.63;;;3.53;;
22146;SDS011;13074;48.298;14.424;2023-11-21T06:01:07;12.20;;;3.80;;
22146;SDS011;13074;48.298;14.424;2023-11-21T06:03:38;8.83;;;3.63;;
22146;SDS011;13074;48.298;14.424;2023-11-21T06:06:07;12.83;;;3.63;;
22146;SDS011;13074;48.298;14.424;2023-11-21T06:08:35;9.37;;;4.23;;
22146;SDS011;13074;48.298;14.424;2023-11-21T06:11:04;7.00;;;3.07;;
22146;SDS011;13074;48.298;14.424;2023-11-21T06:13:31;10.10;;;3.63;;
22146;SDS011;13074;48.298;14.424;2023-11-21T06:16:01;8.50;;;4.30;;
22146;SDS011;13074;48.298;14.424;2023-11-21T06:18:29;10.97;;;4.17;;
22146;SDS011;13074;48.298;14.424;2023-11-21T06:20:57;11.30;;;4.90;;
22146;SDS011;13074;48.298;14.424;2023-11-21T06:23:27;9.27;;;3.93;;
22146;SDS011;13074;48.298;14.424;2023-11-21T06:25:54;16.07;;;5.17;;
22146;SDS011;13074;48.298;14.424;2023-11-21T06:28:22;16.10;;;6.20;;
22146;SDS011;13074;48.298;14.424;2023-11-21T06:30:50;14.60;;;7.27;;
22146;SDS011;13074;48.298;14.424;2023-11-21T06:33:18;12.40;;;6.83;;
22146;SDS011;13074;48.298;14.424;2023-11-21T06:35:48;21.23;;;7.87;;
22146;SDS011;13074;48.298;14.424;2023-11-21T06:38:16;20.40;;;8.30;;
22146;SDS011;13074;48.298;14.424;2023-11-21T06:40:46;19.53;;;7.93;;
22146;SDS011;13074;48.298;14.424;2023-11-21T06:43:14;16.17;;;7.80;;
22146;SDS011;13074;48.298;14.424;2023-11-21T06:45:42;17.03;;;8.23;;
22146;SDS011;13074;48.298;14.424;2023-11-21T06:56:04;18.47;;;7.63;;
22146;SDS011;13074;48.298;14.424;2023-11-21T06:58:45;14.20;;;5.40;;
22146;SDS011;13074;48.298;14.424;2023-11-21T07:01:13;15.10;;;5.73;;
22146;SDS011;13074;48.298;14.424;2023-11-21T07:03:42;19.40;;;5.77;;
22146;SDS011;13074;48.298;14.424;2023-11-21T07:06:11;15.97;;;5.40;;
22146;SDS011;13074;48.298;14.424;2023-11-21T07:08:40;12.83;;;5.50;;
22146;SDS011;13074;48.298;14.424;2023-11-21T07:11:14;11.50;;;5.27;;
22146;SDS011;13074;48.298;14.424;2023-11-21T07:13:51;17.83;;;6.40;;
22146;SDS011;13074;48.298;14.424;2023-11-21T07:16:18;12.77;;;7.20;;
22146;SDS011;13074;48.298;14.424;2023-11-21T07:18:46;15.60;;;6.80;;
22146;SDS011;13074;48.298;14.424;2023-11-21T07:21:26;18.13;;;9.83;;
22146;SDS011;13074;48.298;14.424;2023-11-21T07:23:54;21.17;;;9.63;;
22146;SDS011;13074;48.298;14.424;2023-11-21T07:26:34;20.93;;;10.73;;
22146;SDS011;13074;48.298;14.424;2023-11-21T07:29:07;23.57;;;9.60;;
22146;SDS011;13074;48.298;14.424;2023-11-21T07:31:40;30.13;;;11.73;;
22146;SDS011;13074;48.298;14.424;2023-11-21T07:34:47;17.93;;;9.53;;
22146;SDS011;13074;48.298;14.424;2023-11-21T07:38:09;20.77;;;8.47;;
22146;SDS011;13074;48.298;14.424;2023-11-21T07:50:21;13.67;;;5.53;;
22146;SDS011;13074;48.298;14.424;2023-11-21T11:49:08;7.77;;;4.87;;
22146;SDS011;13074;48.298;14.424;2023-11-21T11:51:37;7.70;;;4.70;;
22146;SDS011;13074;48.298;14.424;2023-11-21T11:54:05;8.80;;;4.67;;
22146;SDS011;13074;48.298;14.424;2023-11-21T11:56:36;7.60;;;4.73;;
22146;SDS011;13074;48.298;14.424;2023-11-21T11:59:09;7.20;;;4.60;;
22146;SDS011;13074;48.298;14.424;2023-11-21T12:01:44;13.67;;;4.80;;
22146;SDS011;13074;48.298;14.424;2023-11-21T12:04:24;7.00;;;3.83;;
22146;SDS011;13074;48.298;14.424;2023-11-21T12:06:56;5.90;;;3.27;;
22146;SDS011;13074;48.298;14.424;2023-11-21T12:09:28;5.20;;;3.40;;
22146;SDS011;13074;48.298;14.424;2023-11-21T12:11:57;9.90;;;3.20;;
22146;SDS011;13074;48.298;14.424;2023-11-21T12:14:26;9.43;;;3.73;;
22146;SDS011;13074;48.298;14.424;2023-11-21T12:16:57;5.20;;;2.90;;
22146;SDS011;13074;48.298;14.424;2023-11-21T12:19:39;6.37;;;3.30;;
22146;SDS011;13074;48.298;14.424;2023-11-21T12:22:20;6.23;;;2.80;;
22146;SDS011;13074;48.298;14.424;2023-11-21T12:25:03;6.30;;;3.17;;
22146;SDS011;13074;48.298;14.424;2023-11-21T12:27:44;5.90;;;3.03;;
22146;SDS011;13074;48.298;14.424;2023-11-21T12:30:15;6.43;;;2.90;;
22146;SDS011;13074;48.298;14.424;2023-11-21T12:32:47;7.10;;;3.83;;
22146;SDS011;13074;48.298;14.424;2023-11-21T12:35:18;4.43;;;3.20;;
22146;SDS011;13074;48.298;14.424;2023-11-21T12:37:47;9.83;;;3.73;;
22146;SDS011;13074;48.298;14.424;2023-11-21T12:40:16;7.20;;;3.60;;
22146;SDS011;13074;48.298;14.424;2023-11-21T12:42:44;4.97;;;3.00;;
22146;SDS011;13074;48.298;14.424;2023-11-21T12:45:21;5.80;;;3.13;;
22146;SDS011;13074;48.298;14.424;2023-11-21T12:47:54;7.17;;;3.47;;
22146;SDS011;13074;48.298;14.424;2023-11-21T12:50:25;9.37;;;3.57;;
22146;SDS011;13074;48.298;14.424;2023-11-21T12:52:58;6.43;;;3.67;;
22146;SDS011;13074;48.298;14.424;2023-11-21T12:55:29;6.57;;;3.87;;
22146;SDS011;13074;48.298;14.424;2023-11-21T12:57:59;5.00;;;3.87;;
22146;SDS011;13074;48.298;14.424;2023-11-21T13:00:35;10.03;;;3.90;;
22146;SDS011;13074;48.298;14.424;2023-11-21T13:03:06;6.30;;;3.60;;
22146;SDS011;13074;48.298;14.424;2023-11-21T13:05:37;7.37;;;3.67;;
22146;SDS011;13074;48.298;14.424;2023-11-21T13:08:08;9.20;;;3.80;;
22146;SDS011;13074;48.298;14.424;2023-11-21T13:10:38;6.37;;;4.07;;
22146;SDS011;13074;48.298;14.424;2023-11-21T13:13:10;8.47;;;3.93;;
22146;SDS011;13074;48.298;14.424;2023-11-21T13:15:47;6.30;;;3.80;;
22146;SDS011;13074;48.298;14.424;2023-11-21T17:39:55;13.63;;;8.00;;
22146;SDS011;13074;48.298;14.424;2023-11-21T18:05:51;11.73;;;7.93;;
22146;SDS011;13074;48.298;14.424;2023-11-21T18:08:26;11.80;;;7.23;;
22146;SDS011;13074;48.298;14.424;2023-11-21T18:10:58;11.37;;;7.10;;
22146;SDS011;13074;48.298;14.424;2023-11-21T18:13:34;22.70;;;8.53;;
22146;SDS011;13074;48.298;14.424;2023-11-21T18:16:03;15.33;;;7.83;;
22146;SDS011;13074;48.298;14.424;2023-11-21T18:18:33;12.40;;;7.07;;
22146;SDS011;13074;48.298;14.424;2023-11-21T18:21:06;18.37;;;7.67;;
22146;SDS011;13074;48.298;14.424;2023-11-21T18:23:37;13.50;;;7.17;;
22146;SDS011;13074;48.298;14.424;2023-11-21T18:26:09;11.07;;;7.40;;
22146;SDS011;13074;48.298;14.424;2023-11-21T18:28:52;11.93;;;8.00;;
22146;SDS011;13074;48.298;14.424;2023-11-21T18:31:25;9.70;;;7.70;;
22146;SDS011;13074;48.298;14.424;2023-11-21T18:34:01;14.00;;;7.50;;
22146;SDS011;13074;48.298;14.424;2023-11-21T18:42:20;7.43;;;3.80;;
22146;SDS011;13074;48.298;14.424;2023-11-21T18:45:01;3.73;;;2.90;;
22146;SDS011;13074;48.298;14.424;2023-11-21T18:47:52;5.07;;;2.53;;
22146;SDS011;13074;48.298;14.424;2023-11-21T18:50:31;2.87;;;2.10;;
22146;SDS011;13074;48.298;14.424;2023-11-21T18:56:23;2.27;;;2.03;;
22146;SDS011;13074;48.298;14.424;2023-11-21T18:59:11;2.73;;;2.20;;
22146;SDS011;13074;48.298;14.424;2023-11-21T19:05:01;2.80;;;2.00;;
22146;SDS011;13074;48.298;14.424;2023-11-21T19:07:37;3.93;;;2.50;;
22146;SDS011;13074;48.298;14.424;2023-11-21T19:16:45;4.57;;;2.73;;
22146;SDS011;13074;48.298;14.424;2023-11-21T19:19:31;3.90;;;3.20;;
22146;SDS011;13074;48.298;14.424;2023-11-21T19:22:24;3.87;;;2.87;;
22146;SDS011;13074;48.298;14.424;2023-11-21T19:25:17;5.97;;;3.23;;
22146;SDS011;13074;48.298;14.424;2023-11-21T19:28:23;10.27;;;4.47;;
22146;SDS011;13074;48.298;14.424;2023-11-21T19:31:17;4.60;;;3.47;;
22146;SDS011;13074;48.298;14.424;2023-11-21T20:30:00;6.97;;;4.77;;
22146;SDS011;13074;48.298;14.424;2023-11-21T20:32:35;6.67;;;4.30;;
22146;SDS011;13074;48.298;14.424;2023-11-21T23:27:37;4.03;;;3.50;;
22146;SDS011;13074;48.298;14.424;2023-11-21T23:30:27;5.10;;;3.97;;
22146;SDS011;13074;48.298;14.424;2023-11-21T23:33:31;4.00;;;3.60;;
22146;SDS011;13074;48.298;14.424;2023-11-21T23:36:18;3.73;;;3.27;;
